sensor_id;sensor_type;location;lat;lon;timestamp;P1;durP1;ratioP1;P2;durP2;ratioP2
71038;SDS011;58692;43.212;27.908;2024-03-23T00:53:33;36.97;;;19.42;;
71038;SDS011;58692;43.212;27.908;2024-03-23T00:56:00;37.93;;;21.70;;
71038;SDS011;58692;43.212;27.908;2024-03-23T00:58:25;45.22;;;22.35;;
71038;SDS011;58692;43.212;27.908;2024-03-23T01:00:51;37.83;;;21.30;;
71038;SDS011;58692;43.212;27.908;2024-03-23T01:03:16;42.30;;;18.73;;
71038;SDS011;58692;43.212;27.908;2024-03-23T01:05:42;31.60;;;16.93;;
71038;SDS011;58692;43.212;27.908;2024-03-23T01:08:07;30.27;;;15.30;;
71038;SDS011;58692;43.212;27.908;2024-03-23T01:10:33;28.97;;;13.83;;
71038;SDS011;58692;43.212;27.908;2024-03-23T01:12:59;27.80;;;13.77;;
71038;SDS011;58692;43.212;27.908;2024-03-23T01:15:24;30.00;;;14.50;;
71038;SDS011;58692;43.212;27.908;2024-03-23T01:17:50;29.97;;;15.63;;
71038;SDS011;58692;43.212;27.908;2024-03-23T01:20:15;31.48;;;15.93;;
71038;SDS011;58692;43.212;27.908;2024-03-23T01:22:41;33.33;;;16.57;;
71038;SDS011;58692;43.212;27.908;2024-03-23T01:25:07;29.77;;;14.90;;
71038;SDS011;58692;43.212;27.908;2024-03-23T01:27:33;30.80;;;15.53;;
71038;SDS011;58692;43.212;27.908;2024-03-23T01:29:59;33.55;;;15.55;;
71038;SDS011;58692;43.212;27.908;2024-03-23T01:32:25;28.60;;;14.63;;
71038;SDS011;58692;43.212;27.908;2024-03-23T01:34:50;26.67;;;13.97;;
71038;SDS011;58692;43.212;27.908;2024-03-23T01:37:16;29.07;;;14.50;;
71038;SDS011;58692;43.212;27.908;2024-03-23T01:39:41;27.25;;;14.73;;
71038;SDS011;58692;43.212;27.908;2024-03-23T01:42:07;25.90;;;14.57;;
71038;SDS011;58692;43.212;27.908;2024-03-23T01:44:33;28.38;;;15.00;;
71038;SDS011;58692;43.212;27.908;2024-03-23T01:46:58;25.83;;;14.37;;
71038;SDS011;58692;43.212;27.908;2024-03-23T01:49:24;28.33;;;15.47;;
71038;SDS011;58692;43.212;27.908;2024-03-23T01:51:49;29.73;;;15.65;;
71038;SDS011;58692;43.212;27.908;2024-03-23T01:54:15;28.13;;;16.23;;
71038;SDS011;58692;43.212;27.908;2024-03-23T01:56:41;33.27;;;16.30;;
71038;SDS011;58692;43.212;27.908;2024-03-23T01:59:07;35.33;;;16.33;;
71038;SDS011;58692;43.212;27.908;2024-03-23T02:01:34;34.78;;;19.35;;
71038;SDS011;58692;43.212;27.908;2024-03-23T02:04:01;31.90;;;18.47;;
71038;SDS011;58692;43.212;27.908;2024-03-23T02:06:27;33.13;;;18.45;;
71038;SDS011;58692;43.212;27.908;2024-03-23T02:08:53;32.60;;;17.30;;
71038;SDS011;58692;43.212;27.908;2024-03-23T02:11:20;38.03;;;16.70;;
71038;SDS011;58692;43.212;27.908;2024-03-23T02:13:45;30.92;;;16.30;;
71038;SDS011;58692;43.212;27.908;2024-03-23T02:16:11;30.27;;;16.27;;
71038;SDS011;58692;43.212;27.908;2024-03-23T02:18:38;35.40;;;18.70;;
71038;SDS011;58692;43.212;27.908;2024-03-23T02:21:03;47.00;;;23.95;;
71038;SDS011;58692;43.212;27.908;2024-03-23T02:23:29;52.47;;;29.50;;
71038;SDS011;58692;43.212;27.908;2024-03-23T02:25:55;61.17;;;30.70;;
71038;SDS011;58692;43.212;27.908;2024-03-23T02:28:20;61.72;;;34.13;;
71038;SDS011;58692;43.212;27.908;2024-03-23T02:30:48;71.60;;;37.08;;
71038;SDS011;58692;43.212;27.908;2024-03-23T02:33:14;60.30;;;33.43;;
71038;SDS011;58692;43.212;27.908;2024-03-23T02:35:40;53.40;;;29.25;;
71038;SDS011;58692;43.212;27.908;2024-03-23T02:38:06;47.92;;;26.52;;
71038;SDS011;58692;43.212;27.908;2024-03-23T02:40:32;41.87;;;23.07;;
71038;SDS011;58692;43.212;27.908;2024-03-23T02:42:57;39.58;;;22.13;;
71038;SDS011;58692;43.212;27.908;2024-03-23T02:45:23;46.13;;;22.23;;
71038;SDS011;58692;43.212;27.908;2024-03-23T02:47:49;39.73;;;22.60;;
71038;SDS011;58692;43.212;27.908;2024-03-23T02:50:18;38.75;;;19.42;;
71038;SDS011;58692;43.212;27.908;2024-03-23T02:52:44;35.03;;;17.90;;
71038;SDS011;58692;43.212;27.908;2024-03-23T02:55:09;30.33;;;16.63;;
71038;SDS011;58692;43.212;27.908;2024-03-23T02:57:35;31.80;;;16.17;;
71038;SDS011;58692;43.212;27.908;2024-03-23T03:00:01;34.37;;;15.63;;
71038;SDS011;58692;43.212;27.908;2024-03-23T03:02:26;30.92;;;15.30;;
71038;SDS011;58692;43.212;27.908;2024-03-23T03:04:52;35.00;;;16.43;;
71038;SDS011;58692;43.212;27.908;2024-03-23T03:07:17;30.63;;;15.82;;
71038;SDS011;58692;43.212;27.908;2024-03-23T03:09:43;31.10;;;15.80;;
71038;SDS011;58692;43.212;27.908;2024-03-23T03:12:09;36.80;;;16.00;;
71038;SDS011;58692;43.212;27.908;2024-03-23T03:14:34;32.53;;;14.95;;
71038;SDS011;58692;43.212;27.908;2024-03-23T03:17:00;37.37;;;15.67;;
71038;SDS011;58692;43.212;27.908;2024-03-23T03:19:26;33.35;;;16.20;;
71038;SDS011;58692;43.212;27.908;2024-03-23T03:21:52;32.15;;;16.05;;
71038;SDS011;58692;43.212;27.908;2024-03-23T03:24:18;33.30;;;16.20;;
71038;SDS011;58692;43.212;27.908;2024-03-23T03:26:43;31.98;;;16.80;;
71038;SDS011;58692;43.212;27.908;2024-03-23T03:29:09;38.03;;;16.30;;
71038;SDS011;58692;43.212;27.908;2024-03-23T03:31:35;35.05;;;16.75;;
71038;SDS011;58692;43.212;27.908;2024-03-23T03:34:01;30.15;;;16.85;;
71038;SDS011;58692;43.212;27.908;2024-03-23T03:36:27;34.35;;;17.00;;
71038;SDS011;58692;43.212;27.908;2024-03-23T03:38:53;31.23;;;15.90;;
71038;SDS011;58692;43.212;27.908;2024-03-23T03:41:18;29.43;;;15.37;;
71038;SDS011;58692;43.212;27.908;2024-03-23T03:43:44;33.37;;;16.47;;
71038;SDS011;58692;43.212;27.908;2024-03-23T03:46:10;36.13;;;17.98;;
71038;SDS011;58692;43.212;27.908;2024-03-23T03:48:36;34.33;;;17.13;;
71038;SDS011;58692;43.212;27.908;2024-03-23T03:51:02;31.55;;;16.88;;
71038;SDS011;58692;43.212;27.908;2024-03-23T03:53:28;37.35;;;17.42;;
71038;SDS011;58692;43.212;27.908;2024-03-23T03:55:53;31.73;;;15.57;;
71038;SDS011;58692;43.212;27.908;2024-03-23T03:58:19;32.83;;;15.63;;
71038;SDS011;58692;43.212;27.908;2024-03-23T04:00:44;29.03;;;15.17;;
71038;SDS011;58692;43.212;27.908;2024-03-23T04:03:10;28.63;;;14.97;;
71038;SDS011;58692;43.212;27.908;2024-03-23T04:05:36;31.52;;;15.77;;
71038;SDS011;58692;43.212;27.908;2024-03-23T04:08:01;30.27;;;15.40;;
71038;SDS011;58692;43.212;27.908;2024-03-23T04:10:27;29.08;;;14.80;;
71038;SDS011;58692;43.212;27.908;2024-03-23T04:12:52;25.87;;;14.13;;
71038;SDS011;58692;43.212;27.908;2024-03-23T04:15:19;27.13;;;13.48;;
71038;SDS011;58692;43.212;27.908;2024-03-23T04:17:45;29.60;;;14.23;;
71038;SDS011;58692;43.212;27.908;2024-03-23T04:20:11;33.20;;;15.73;;
71038;SDS011;58692;43.212;27.908;2024-03-23T04:22:38;31.05;;;14.02;;
71038;SDS011;58692;43.212;27.908;2024-03-23T04:25:04;30.55;;;14.60;;
71038;SDS011;58692;43.212;27.908;2024-03-23T04:27:33;28.23;;;14.70;;
71038;SDS011;58692;43.212;27.908;2024-03-23T04:29:59;29.60;;;14.35;;
71038;SDS011;58692;43.212;27.908;2024-03-23T04:32:26;32.55;;;14.93;;
71038;SDS011;58692;43.212;27.908;2024-03-23T04:34:52;31.45;;;15.15;;
71038;SDS011;58692;43.212;27.908;2024-03-23T04:37:18;30.60;;;14.95;;
71038;SDS011;58692;43.212;27.908;2024-03-23T04:39:45;34.57;;;16.03;;
71038;SDS011;58692;43.212;27.908;2024-03-23T04:42:10;34.15;;;15.73;;
71038;SDS011;58692;43.212;27.908;2024-03-23T04:44:37;33.30;;;16.15;;
71038;SDS011;58692;43.212;27.908;2024-03-23T04:47:02;33.17;;;16.70;;
71038;SDS011;58692;43.212;27.908;2024-03-23T04:49:28;35.83;;;18.40;;
71038;SDS011;58692;43.212;27.908;2024-03-23T04:51:54;31.43;;;16.20;;
71038;SDS011;58692;43.212;27.908;2024-03-23T04:54:19;34.80;;;16.43;;
71038;SDS011;58692;43.212;27.908;2024-03-23T04:56:45;34.13;;;18.80;;
71038;SDS011;58692;43.212;27.908;2024-03-23T04:59:11;38.55;;;18.20;;
71038;SDS011;58692;43.212;27.908;2024-03-23T05:01:37;37.83;;;18.57;;
71038;SDS011;58692;43.212;27.908;2024-03-23T05:04:05;39.40;;;19.90;;
71038;SDS011;58692;43.212;27.908;2024-03-23T05:06:30;42.37;;;20.10;;
71038;SDS011;58692;43.212;27.908;2024-03-23T05:08:56;42.45;;;19.73;;
71038;SDS011;58692;43.212;27.908;2024-03-23T05:11:22;45.37;;;21.90;;
71038;SDS011;58692;43.212;27.908;2024-03-23T05:13:47;51.03;;;22.73;;
71038;SDS011;58692;43.212;27.908;2024-03-23T05:16:13;58.53;;;24.50;;
71038;SDS011;58692;43.212;27.908;2024-03-23T05:18:39;47.70;;;22.85;;
71038;SDS011;58692;43.212;27.908;2024-03-23T05:21:04;47.20;;;24.10;;
71038;SDS011;58692;43.212;27.908;2024-03-23T05:23:30;57.60;;;26.00;;
71038;SDS011;58692;43.212;27.908;2024-03-23T05:25:55;58.30;;;26.73;;
71038;SDS011;58692;43.212;27.908;2024-03-23T05:28:22;51.37;;;26.67;;
71038;SDS011;58692;43.212;27.908;2024-03-23T05:30:51;45.15;;;24.10;;
71038;SDS011;58692;43.212;27.908;2024-03-23T05:33:18;46.22;;;23.52;;
71038;SDS011;58692;43.212;27.908;2024-03-23T05:35:45;46.33;;;22.70;;
71038;SDS011;58692;43.212;27.908;2024-03-23T05:38:11;43.38;;;22.58;;
71038;SDS011;58692;43.212;27.908;2024-03-23T05:40:36;43.57;;;22.23;;
71038;SDS011;58692;43.212;27.908;2024-03-23T05:43:02;42.08;;;21.95;;
71038;SDS011;58692;43.212;27.908;2024-03-23T05:45:29;40.93;;;22.47;;
71038;SDS011;58692;43.212;27.908;2024-03-23T05:47:55;43.88;;;22.50;;
71038;SDS011;58692;43.212;27.908;2024-03-23T05:50:22;45.50;;;23.38;;
71038;SDS011;58692;43.212;27.908;2024-03-23T05:52:48;45.97;;;23.55;;
71038;SDS011;58692;43.212;27.908;2024-03-23T05:55:14;49.80;;;23.88;;
71038;SDS011;58692;43.212;27.908;2024-03-23T05:57:40;49.33;;;25.03;;
71038;SDS011;58692;43.212;27.908;2024-03-23T06:00:07;46.20;;;24.40;;
71038;SDS011;58692;43.212;27.908;2024-03-23T06:02:41;42.70;;;23.53;;
71038;SDS011;58692;43.212;27.908;2024-03-23T06:05:11;45.42;;;24.77;;
71038;SDS011;58692;43.212;27.908;2024-03-23T06:07:37;45.65;;;24.92;;
71038;SDS011;58692;43.212;27.908;2024-03-23T06:10:03;43.00;;;23.98;;
71038;SDS011;58692;43.212;27.908;2024-03-23T06:12:31;42.92;;;24.00;;
71038;SDS011;58692;43.212;27.908;2024-03-23T06:14:57;42.63;;;24.87;;
71038;SDS011;58692;43.212;27.908;2024-03-23T06:17:23;44.97;;;25.00;;
71038;SDS011;58692;43.212;27.908;2024-03-23T06:19:48;41.70;;;25.08;;
71038;SDS011;58692;43.212;27.908;2024-03-23T06:22:14;45.53;;;22.73;;
71038;SDS011;58692;43.212;27.908;2024-03-23T06:24:40;43.08;;;23.50;;
71038;SDS011;58692;43.212;27.908;2024-03-23T06:27:06;42.83;;;24.97;;
71038;SDS011;58692;43.212;27.908;2024-03-23T06:29:31;44.03;;;23.80;;
71038;SDS011;58692;43.212;27.908;2024-03-23T06:31:57;43.87;;;24.43;;
71038;SDS011;58692;43.212;27.908;2024-03-23T06:34:23;45.60;;;24.30;;
71038;SDS011;58692;43.212;27.908;2024-03-23T06:36:50;40.95;;;23.75;;
71038;SDS011;58692;43.212;27.908;2024-03-23T06:39:16;40.35;;;23.00;;
71038;SDS011;58692;43.212;27.908;2024-03-23T06:41:50;45.33;;;24.80;;
71038;SDS011;58692;43.212;27.908;2024-03-23T06:44:17;46.83;;;25.15;;
71038;SDS011;58692;43.212;27.908;2024-03-23T06:46:44;49.90;;;24.35;;
71038;SDS011;58692;43.212;27.908;2024-03-23T06:49:10;44.80;;;23.55;;
71038;SDS011;58692;43.212;27.908;2024-03-23T06:51:35;37.40;;;20.97;;
71038;SDS011;58692;43.212;27.908;2024-03-23T06:54:02;39.83;;;21.20;;
71038;SDS011;58692;43.212;27.908;2024-03-23T06:56:29;38.78;;;20.65;;
71038;SDS011;58692;43.212;27.908;2024-03-23T06:58:54;34.80;;;19.95;;
71038;SDS011;58692;43.212;27.908;2024-03-23T07:01:21;39.58;;;19.88;;
71038;SDS011;58692;43.212;27.908;2024-03-23T07:03:46;32.43;;;18.87;;
71038;SDS011;58692;43.212;27.908;2024-03-23T07:06:12;33.50;;;20.00;;
71038;SDS011;58692;43.212;27.908;2024-03-23T07:08:37;31.33;;;19.15;;
71038;SDS011;58692;43.212;27.908;2024-03-23T07:11:03;39.30;;;20.30;;
71038;SDS011;58692;43.212;27.908;2024-03-23T07:13:30;31.92;;;19.55;;
71038;SDS011;58692;43.212;27.908;2024-03-23T07:15:56;31.27;;;17.70;;
71038;SDS011;58692;43.212;27.908;2024-03-23T07:18:22;29.48;;;17.15;;
71038;SDS011;58692;43.212;27.908;2024-03-23T07:20:52;28.67;;;16.87;;
71038;SDS011;58692;43.212;27.908;2024-03-23T07:23:19;29.13;;;16.73;;
71038;SDS011;58692;43.212;27.908;2024-03-23T07:25:45;27.52;;;17.30;;
71038;SDS011;58692;43.212;27.908;2024-03-23T07:28:10;30.20;;;17.50;;
71038;SDS011;58692;43.212;27.908;2024-03-23T07:30:36;28.83;;;17.17;;
71038;SDS011;58692;43.212;27.908;2024-03-23T07:33:01;28.27;;;17.65;;
71038;SDS011;58692;43.212;27.908;2024-03-23T07:35:27;27.20;;;17.17;;
71038;SDS011;58692;43.212;27.908;2024-03-23T07:37:52;23.95;;;16.02;;
71038;SDS011;58692;43.212;27.908;2024-03-23T07:40:18;29.20;;;15.70;;
71038;SDS011;58692;43.212;27.908;2024-03-23T07:42:45;24.08;;;14.63;;
71038;SDS011;58692;43.212;27.908;2024-03-23T07:45:10;23.93;;;16.00;;
71038;SDS011;58692;43.212;27.908;2024-03-23T07:47:37;29.60;;;16.48;;
71038;SDS011;58692;43.212;27.908;2024-03-23T07:50:02;29.80;;;16.53;;
71038;SDS011;58692;43.212;27.908;2024-03-23T07:52:28;26.80;;;16.02;;
71038;SDS011;58692;43.212;27.908;2024-03-23T07:54:54;22.45;;;15.20;;
71038;SDS011;58692;43.212;27.908;2024-03-23T07:57:19;20.63;;;12.80;;
71038;SDS011;58692;43.212;27.908;2024-03-23T07:59:45;20.70;;;12.43;;
71038;SDS011;58692;43.212;27.908;2024-03-23T08:02:11;21.98;;;12.48;;
71038;SDS011;58692;43.212;27.908;2024-03-23T08:04:37;16.77;;;11.02;;
71038;SDS011;58692;43.212;27.908;2024-03-23T08:07:02;20.03;;;12.00;;
71038;SDS011;58692;43.212;27.908;2024-03-23T08:09:28;19.98;;;12.43;;
71038;SDS011;58692;43.212;27.908;2024-03-23T08:11:54;21.53;;;11.90;;
71038;SDS011;58692;43.212;27.908;2024-03-23T08:14:19;23.25;;;14.98;;
71038;SDS011;58692;43.212;27.908;2024-03-23T08:16:45;22.37;;;14.27;;
71038;SDS011;58692;43.212;27.908;2024-03-23T08:19:14;22.50;;;13.50;;
71038;SDS011;58692;43.212;27.908;2024-03-23T08:21:40;20.27;;;14.65;;
71038;SDS011;58692;43.212;27.908;2024-03-23T08:24:05;20.80;;;14.67;;
71038;SDS011;58692;43.212;27.908;2024-03-23T08:26:31;23.70;;;15.77;;
71038;SDS011;58692;43.212;27.908;2024-03-23T08:28:57;22.50;;;14.57;;
71038;SDS011;58692;43.212;27.908;2024-03-23T08:31:23;17.10;;;11.47;;
71038;SDS011;58692;43.212;27.908;2024-03-23T08:33:49;21.02;;;14.25;;
71038;SDS011;58692;43.212;27.908;2024-03-23T08:36:14;18.00;;;11.47;;
71038;SDS011;58692;43.212;27.908;2024-03-23T08:38:40;15.02;;;10.25;;
71038;SDS011;58692;43.212;27.908;2024-03-23T08:41:07;15.13;;;9.50;;
71038;SDS011;58692;43.212;27.908;2024-03-23T08:43:36;14.75;;;9.20;;
71038;SDS011;58692;43.212;27.908;2024-03-23T08:48:32;11.98;;;7.63;;
71038;SDS011;58692;43.212;27.908;2024-03-23T08:51:00;12.38;;;7.75;;
71038;SDS011;58692;43.212;27.908;2024-03-23T08:53:27;13.73;;;7.90;;
71038;SDS011;58692;43.212;27.908;2024-03-23T08:55:54;13.65;;;7.78;;
71038;SDS011;58692;43.212;27.908;2024-03-23T08:58:20;15.10;;;7.88;;
71038;SDS011;58692;43.212;27.908;2024-03-23T09:00:47;15.07;;;7.57;;
71038;SDS011;58692;43.212;27.908;2024-03-23T09:03:12;12.00;;;6.87;;
71038;SDS011;58692;43.212;27.908;2024-03-23T09:05:39;12.45;;;7.13;;
71038;SDS011;58692;43.212;27.908;2024-03-23T09:08:05;10.43;;;6.00;;
71038;SDS011;58692;43.212;27.908;2024-03-23T09:10:31;13.02;;;6.25;;
71038;SDS011;58692;43.212;27.908;2024-03-23T09:12:57;10.45;;;5.90;;
71038;SDS011;58692;43.212;27.908;2024-03-23T09:15:22;11.10;;;6.80;;
71038;SDS011;58692;43.212;27.908;2024-03-23T09:17:48;11.40;;;6.63;;
71038;SDS011;58692;43.212;27.908;2024-03-23T09:20:14;13.33;;;7.97;;
71038;SDS011;58692;43.212;27.908;2024-03-23T09:22:39;12.07;;;6.67;;
71038;SDS011;58692;43.212;27.908;2024-03-23T09:25:05;15.70;;;10.27;;
71038;SDS011;58692;43.212;27.908;2024-03-23T09:27:31;18.85;;;9.90;;
71038;SDS011;58692;43.212;27.908;2024-03-23T09:29:56;15.40;;;9.93;;
71038;SDS011;58692;43.212;27.908;2024-03-23T09:32:22;15.40;;;8.98;;
71038;SDS011;58692;43.212;27.908;2024-03-23T09:34:48;17.67;;;9.00;;
71038;SDS011;58692;43.212;27.908;2024-03-23T09:37:13;13.97;;;8.30;;
71038;SDS011;58692;43.212;27.908;2024-03-23T09:39:39;13.45;;;7.25;;
71038;SDS011;58692;43.212;27.908;2024-03-23T09:42:04;13.57;;;7.00;;
71038;SDS011;58692;43.212;27.908;2024-03-23T09:44:31;12.88;;;6.57;;
71038;SDS011;58692;43.212;27.908;2024-03-23T09:46:57;15.00;;;6.37;;
71038;SDS011;58692;43.212;27.908;2024-03-23T09:49:22;11.63;;;6.63;;
71038;SDS011;58692;43.212;27.908;2024-03-23T09:51:48;10.30;;;6.13;;
71038;SDS011;58692;43.212;27.908;2024-03-23T09:54:14;11.07;;;5.80;;
71038;SDS011;58692;43.212;27.908;2024-03-23T09:56:39;12.20;;;5.57;;
71038;SDS011;58692;43.212;27.908;2024-03-23T09:59:05;12.48;;;5.63;;
71038;SDS011;58692;43.212;27.908;2024-03-23T10:01:31;11.35;;;5.60;;
71038;SDS011;58692;43.212;27.908;2024-03-23T10:03:57;8.83;;;4.67;;
71038;SDS011;58692;43.212;27.908;2024-03-23T10:06:22;9.20;;;5.10;;
71038;SDS011;58692;43.212;27.908;2024-03-23T10:08:52;9.73;;;5.40;;
71038;SDS011;58692;43.212;27.908;2024-03-23T10:11:19;8.98;;;4.85;;
71038;SDS011;58692;43.212;27.908;2024-03-23T10:13:46;8.77;;;4.82;;
71038;SDS011;58692;43.212;27.908;2024-03-23T10:16:12;9.50;;;5.15;;
71038;SDS011;58692;43.212;27.908;2024-03-23T10:18:47;10.68;;;4.55;;
71038;SDS011;58692;43.212;27.908;2024-03-23T10:21:14;9.57;;;4.50;;
71038;SDS011;58692;43.212;27.908;2024-03-23T10:23:41;8.70;;;4.40;;
71038;SDS011;58692;43.212;27.908;2024-03-23T10:26:16;9.48;;;4.32;;
71038;SDS011;58692;43.212;27.908;2024-03-23T10:28:51;9.03;;;4.50;;
71038;SDS011;58692;43.212;27.908;2024-03-23T10:31:24;7.65;;;3.83;;
71038;SDS011;58692;43.212;27.908;2024-03-23T10:33:50;6.20;;;3.35;;
71038;SDS011;58692;43.212;27.908;2024-03-23T10:36:19;8.73;;;3.97;;
71038;SDS011;58692;43.212;27.908;2024-03-23T10:38:45;9.17;;;4.07;;
71038;SDS011;58692;43.212;27.908;2024-03-23T10:41:12;8.60;;;4.25;;
71038;SDS011;58692;43.212;27.908;2024-03-23T10:43:38;7.55;;;3.83;;
71038;SDS011;58692;43.212;27.908;2024-03-23T10:46:04;7.30;;;3.78;;
71038;SDS011;58692;43.212;27.908;2024-03-23T10:48:31;7.68;;;3.72;;
71038;SDS011;58692;43.212;27.908;2024-03-23T10:50:58;7.30;;;3.90;;
71038;SDS011;58692;43.212;27.908;2024-03-23T10:53:25;7.65;;;4.18;;
71038;SDS011;58692;43.212;27.908;2024-03-23T10:55:55;8.93;;;3.88;;
71038;SDS011;58692;43.212;27.908;2024-03-23T10:58:23;8.45;;;3.95;;
71038;SDS011;58692;43.212;27.908;2024-03-23T11:00:53;8.77;;;4.53;;
71038;SDS011;58692;43.212;27.908;2024-03-23T11:06:02;8.25;;;4.03;;
71038;SDS011;58692;43.212;27.908;2024-03-23T11:08:37;9.10;;;4.40;;
71038;SDS011;58692;43.212;27.908;2024-03-23T11:13:48;9.70;;;4.47;;
71038;SDS011;58692;43.212;27.908;2024-03-23T11:18:47;9.35;;;4.32;;
71038;SDS011;58692;43.212;27.908;2024-03-23T11:24:16;8.47;;;4.40;;
71038;SDS011;58692;43.212;27.908;2024-03-23T11:26:42;10.30;;;5.18;;
71038;SDS011;58692;43.212;27.908;2024-03-23T11:29:09;9.35;;;4.75;;
71038;SDS011;58692;43.212;27.908;2024-03-23T11:31:36;9.40;;;5.00;;
71038;SDS011;58692;43.212;27.908;2024-03-23T11:34:04;11.02;;;4.75;;
71038;SDS011;58692;43.212;27.908;2024-03-23T11:36:30;10.70;;;4.53;;
71038;SDS011;58692;43.212;27.908;2024-03-23T11:38:56;9.43;;;4.72;;
71038;SDS011;58692;43.212;27.908;2024-03-23T11:41:22;8.90;;;4.67;;
71038;SDS011;58692;43.212;27.908;2024-03-23T11:43:47;8.43;;;4.50;;
71038;SDS011;58692;43.212;27.908;2024-03-23T11:46:21;8.10;;;4.47;;
71038;SDS011;58692;43.212;27.908;2024-03-23T11:48:50;9.00;;;4.50;;
71038;SDS011;58692;43.212;27.908;2024-03-23T11:51:16;8.50;;;4.30;;
71038;SDS011;58692;43.212;27.908;2024-03-23T11:53:42;9.55;;;4.53;;
71038;SDS011;58692;43.212;27.908;2024-03-23T11:56:08;9.17;;;4.40;;
71038;SDS011;58692;43.212;27.908;2024-03-23T11:58:34;10.60;;;4.40;;
71038;SDS011;58692;43.212;27.908;2024-03-23T12:01:01;9.10;;;4.57;;
71038;SDS011;58692;43.212;27.908;2024-03-23T12:03:28;9.47;;;4.60;;
71038;SDS011;58692;43.212;27.908;2024-03-23T12:05:55;10.50;;;5.07;;
71038;SDS011;58692;43.212;27.908;2024-03-23T12:10:53;11.38;;;5.72;;
71038;SDS011;58692;43.212;27.908;2024-03-23T12:13:29;9.52;;;4.75;;
71038;SDS011;58692;43.212;27.908;2024-03-23T12:15:55;9.70;;;5.00;;
71038;SDS011;58692;43.212;27.908;2024-03-23T12:18:42;9.40;;;4.72;;
71038;SDS011;58692;43.212;27.908;2024-03-23T12:21:09;9.65;;;4.53;;
71038;SDS011;58692;43.212;27.908;2024-03-23T12:23:35;9.50;;;4.63;;
71038;SDS011;58692;43.212;27.908;2024-03-23T12:26:01;10.52;;;4.78;;
71038;SDS011;58692;43.212;27.908;2024-03-23T12:28:27;9.98;;;5.22;;
71038;SDS011;58692;43.212;27.908;2024-03-23T12:30:53;10.32;;;5.70;;
71038;SDS011;58692;43.212;27.908;2024-03-23T12:33:20;10.23;;;5.33;;
71038;SDS011;58692;43.212;27.908;2024-03-23T12:35:47;11.73;;;5.78;;
71038;SDS011;58692;43.212;27.908;2024-03-23T12:38:13;10.38;;;5.63;;
71038;SDS011;58692;43.212;27.908;2024-03-23T12:40:38;11.07;;;6.03;;
71038;SDS011;58692;43.212;27.908;2024-03-23T12:43:04;11.73;;;5.53;;
71038;SDS011;58692;43.212;27.908;2024-03-23T12:45:30;11.47;;;6.30;;
71038;SDS011;58692;43.212;27.908;2024-03-23T12:47:55;15.13;;;7.25;;
71038;SDS011;58692;43.212;27.908;2024-03-23T12:50:21;13.50;;;7.17;;
71038;SDS011;58692;43.212;27.908;2024-03-23T12:52:47;15.88;;;7.43;;
71038;SDS011;58692;43.212;27.908;2024-03-23T12:55:13;13.50;;;7.03;;
71038;SDS011;58692;43.212;27.908;2024-03-23T12:57:38;15.23;;;7.97;;
71038;SDS011;58692;43.212;27.908;2024-03-23T13:00:06;15.30;;;7.32;;
71038;SDS011;58692;43.212;27.908;2024-03-23T13:02:32;13.02;;;7.03;;
71038;SDS011;58692;43.212;27.908;2024-03-23T13:05:00;14.48;;;6.85;;
71038;SDS011;58692;43.212;27.908;2024-03-23T13:07:25;14.80;;;7.17;;
71038;SDS011;58692;43.212;27.908;2024-03-23T13:09:51;14.35;;;7.38;;
71038;SDS011;58692;43.212;27.908;2024-03-23T13:12:18;14.70;;;7.00;;
71038;SDS011;58692;43.212;27.908;2024-03-23T13:14:45;14.03;;;7.00;;
71038;SDS011;58692;43.212;27.908;2024-03-23T13:17:11;13.63;;;6.43;;
71038;SDS011;58692;43.212;27.908;2024-03-23T13:19:37;14.65;;;6.57;;
71038;SDS011;58692;43.212;27.908;2024-03-23T13:22:03;15.95;;;6.95;;
71038;SDS011;58692;43.212;27.908;2024-03-23T13:24:29;13.07;;;6.70;;
71038;SDS011;58692;43.212;27.908;2024-03-23T13:26:56;13.50;;;7.25;;
71038;SDS011;58692;43.212;27.908;2024-03-23T13:29:22;12.15;;;6.47;;
71038;SDS011;58692;43.212;27.908;2024-03-23T13:31:49;14.07;;;6.60;;
71038;SDS011;58692;43.212;27.908;2024-03-23T13:34:16;12.37;;;6.00;;
71038;SDS011;58692;43.212;27.908;2024-03-23T13:36:43;15.07;;;6.55;;
71038;SDS011;58692;43.212;27.908;2024-03-23T13:39:10;12.65;;;6.30;;
71038;SDS011;58692;43.212;27.908;2024-03-23T13:41:38;13.43;;;6.03;;
71038;SDS011;58692;43.212;27.908;2024-03-23T13:44:06;12.65;;;6.25;;
71038;SDS011;58692;43.212;27.908;2024-03-23T13:46:33;10.53;;;5.30;;
71038;SDS011;58692;43.212;27.908;2024-03-23T13:48:59;12.05;;;5.65;;
71038;SDS011;58692;43.212;27.908;2024-03-23T13:51:25;10.77;;;5.93;;
71038;SDS011;58692;43.212;27.908;2024-03-23T13:53:53;13.10;;;5.93;;
71038;SDS011;58692;43.212;27.908;2024-03-23T13:56:19;11.33;;;5.47;;
71038;SDS011;58692;43.212;27.908;2024-03-23T13:58:45;12.45;;;5.63;;
71038;SDS011;58692;43.212;27.908;2024-03-23T14:01:13;14.38;;;5.95;;
71038;SDS011;58692;43.212;27.908;2024-03-23T14:03:39;11.25;;;5.47;;
71038;SDS011;58692;43.212;27.908;2024-03-23T14:06:05;10.30;;;5.05;;
71038;SDS011;58692;43.212;27.908;2024-03-23T14:08:32;14.47;;;5.93;;
71038;SDS011;58692;43.212;27.908;2024-03-23T14:11:00;12.45;;;5.35;;
71038;SDS011;58692;43.212;27.908;2024-03-23T14:13:27;9.13;;;4.57;;
71038;SDS011;58692;43.212;27.908;2024-03-23T14:15:53;9.93;;;4.53;;
71038;SDS011;58692;43.212;27.908;2024-03-23T14:18:19;11.35;;;5.43;;
71038;SDS011;58692;43.212;27.908;2024-03-23T14:20:44;11.93;;;4.70;;
71038;SDS011;58692;43.212;27.908;2024-03-23T14:23:10;10.73;;;4.63;;
71038;SDS011;58692;43.212;27.908;2024-03-23T14:25:35;10.98;;;4.20;;
71038;SDS011;58692;43.212;27.908;2024-03-23T14:28:01;9.73;;;4.63;;
71038;SDS011;58692;43.212;27.908;2024-03-23T14:30:26;11.20;;;4.80;;
71038;SDS011;58692;43.212;27.908;2024-03-23T14:32:52;15.30;;;4.97;;
71038;SDS011;58692;43.212;27.908;2024-03-23T14:35:18;9.57;;;4.20;;
71038;SDS011;58692;43.212;27.908;2024-03-23T14:37:43;8.75;;;4.32;;
71038;SDS011;58692;43.212;27.908;2024-03-23T14:40:09;9.97;;;4.73;;
71038;SDS011;58692;43.212;27.908;2024-03-23T14:42:37;9.10;;;3.92;;
71038;SDS011;58692;43.212;27.908;2024-03-23T14:45:04;9.95;;;4.70;;
71038;SDS011;58692;43.212;27.908;2024-03-23T14:47:30;9.88;;;3.83;;
71038;SDS011;58692;43.212;27.908;2024-03-23T14:49:56;8.03;;;3.73;;
71038;SDS011;58692;43.212;27.908;2024-03-23T14:52:23;9.60;;;4.47;;
71038;SDS011;58692;43.212;27.908;2024-03-23T14:54:49;10.63;;;4.10;;
71038;SDS011;58692;43.212;27.908;2024-03-23T14:57:15;8.87;;;3.77;;
71038;SDS011;58692;43.212;27.908;2024-03-23T14:59:41;10.48;;;4.28;;
71038;SDS011;58692;43.212;27.908;2024-03-23T15:02:07;9.93;;;4.07;;
71038;SDS011;58692;43.212;27.908;2024-03-23T15:04:33;9.65;;;4.13;;
71038;SDS011;58692;43.212;27.908;2024-03-23T15:06:59;10.75;;;4.80;;
71038;SDS011;58692;43.212;27.908;2024-03-23T15:09:25;9.55;;;4.13;;
71038;SDS011;58692;43.212;27.908;2024-03-23T15:11:51;8.60;;;3.60;;
71038;SDS011;58692;43.212;27.908;2024-03-23T15:14:17;9.98;;;4.22;;
71038;SDS011;58692;43.212;27.908;2024-03-23T15:16:42;10.60;;;4.17;;
71038;SDS011;58692;43.212;27.908;2024-03-23T15:19:08;8.73;;;3.60;;